Main page
METAR-TAF:

METAR-TAF

Airports :

Adolfo Suárez Madrid–Barajas Airport

Madrid, Spain

latitude: 40-27N, longitude: 003-33W, elevation: 609 m

Current weather observation

The report was made 19 minutes ago, at 19:00 UTC
Wind 5 kt from the East/Northeast, varying between North and East/Southeast
Temperature 29°C
Humidity 33%
Pressure 1019 hPa
Visibility 10 km or more
no clouds below 1500 m and no cumulonimbus

METAR: LEMD 181900Z 06005KT 010V110 CAVOK 29/11 Q1019 NOSIG

Time: 21:19 (19:19 UTC)

Forecast

The report was made 2 hours and 19 minutes ago, at 17:00 UTC
Forecast valid from 18 at 18 UTC to 19 at 24 UTC
Wind 8 kt from the East/Northeast
Visibility 10 km or more
no clouds below 1500 m and no cumulonimbus
Temporary
from 19 at 11 UTC to 19 at 18 UTC
Wind 8 kt from the South/Southeast with gusts up to 18 kt

TAF: LEMD 181700Z 1818/1924 06008KT CAVOK TX33/1915Z TN16/1906Z TEMPO 1911/1918 16008G18KT

Weather observations and forecasts of more than 4000 airports (METAR and TAF reports).

The available stations are represented by yellow and red dots on the map.

Hover mouse over dot to see the name of the station.

Then click to see weather observations and forecasts.

To change the map : click on the green buttons with a black cross to zoom in, on the green button with a dash to zoom out, or on the green arrows for adjacent maps.


METAR-TAF: